sensor_id;sensor_type;location;lat;lon;timestamp;P1;durP1;ratioP1;P2;durP2;ratioP2
4055;SDS011;2043;52.184;8.690;2022-12-10T00:01:11;57.50;;;27.50;;
4055;SDS011;2043;52.184;8.690;2022-12-10T00:03:39;58.47;;;27.67;;
4055;SDS011;2043;52.184;8.690;2022-12-10T00:06:07;57.03;;;27.00;;
4055;SDS011;2043;52.184;8.690;2022-12-10T00:08:37;60.00;;;27.60;;
4055;SDS011;2043;52.184;8.690;2022-12-10T00:11:06;58.13;;;26.87;;
4055;SDS011;2043;52.184;8.690;2022-12-10T00:13:34;58.93;;;27.23;;
4055;SDS011;2043;52.184;8.690;2022-12-10T00:16:04;57.83;;;27.80;;
4055;SDS011;2043;52.184;8.690;2022-12-10T00:18:33;57.70;;;27.30;;
4055;SDS011;2043;52.184;8.690;2022-12-10T00:21:07;52.73;;;24.00;;
4055;SDS011;2043;52.184;8.690;2022-12-10T00:23:37;56.93;;;24.93;;
4055;SDS011;2043;52.184;8.690;2022-12-10T00:26:05;58.47;;;26.67;;
4055;SDS011;2043;52.184;8.690;2022-12-10T00:28:36;52.60;;;26.23;;
4055;SDS011;2043;52.184;8.690;2022-12-10T00:31:05;56.23;;;26.00;;
4055;SDS011;2043;52.184;8.690;2022-12-10T00:33:34;55.73;;;27.27;;
4055;SDS011;2043;52.184;8.690;2022-12-10T00:36:02;59.57;;;27.40;;
4055;SDS011;2043;52.184;8.690;2022-12-10T00:38:31;53.37;;;26.03;;
4055;SDS011;2043;52.184;8.690;2022-12-10T00:40:58;55.93;;;27.03;;
4055;SDS011;2043;52.184;8.690;2022-12-10T00:43:26;51.90;;;26.07;;
4055;SDS011;2043;52.184;8.690;2022-12-10T00:45:53;51.07;;;25.27;;
4055;SDS011;2043;52.184;8.690;2022-12-10T00:48:20;58.30;;;27.67;;
4055;SDS011;2043;52.184;8.690;2022-12-10T00:53:27;67.83;;;29.80;;
4055;SDS011;2043;52.184;8.690;2022-12-10T00:55:55;62.50;;;29.73;;
4055;SDS011;2043;52.184;8.690;2022-12-10T00:58:23;67.73;;;31.23;;
4055;SDS011;2043;52.184;8.690;2022-12-10T01:00:53;74.10;;;31.27;;
4055;SDS011;2043;52.184;8.690;2022-12-10T01:03:20;68.90;;;31.30;;
4055;SDS011;2043;52.184;8.690;2022-12-10T01:05:47;66.70;;;31.10;;
4055;SDS011;2043;52.184;8.690;2022-12-10T01:08:15;58.87;;;28.20;;
4055;SDS011;2043;52.184;8.690;2022-12-10T01:10:42;62.40;;;29.20;;
4055;SDS011;2043;52.184;8.690;2022-12-10T01:13:08;67.50;;;28.80;;
4055;SDS011;2043;52.184;8.690;2022-12-10T01:15:39;63.00;;;29.33;;
4055;SDS011;2043;52.184;8.690;2022-12-10T01:18:06;74.33;;;29.50;;
4055;SDS011;2043;52.184;8.690;2022-12-10T01:20:34;64.87;;;29.97;;
4055;SDS011;2043;52.184;8.690;2022-12-10T01:23:02;62.47;;;30.20;;
4055;SDS011;2043;52.184;8.690;2022-12-10T01:25:29;62.30;;;29.37;;
4055;SDS011;2043;52.184;8.690;2022-12-10T01:27:56;62.43;;;29.97;;
4055;SDS011;2043;52.184;8.690;2022-12-10T01:30:23;64.60;;;29.20;;
4055;SDS011;2043;52.184;8.690;2022-12-10T01:32:50;66.80;;;30.40;;
4055;SDS011;2043;52.184;8.690;2022-12-10T01:35:17;65.73;;;30.90;;
4055;SDS011;2043;52.184;8.690;2022-12-10T01:37:44;70.20;;;31.47;;
4055;SDS011;2043;52.184;8.690;2022-12-10T01:40:11;66.07;;;29.27;;
4055;SDS011;2043;52.184;8.690;2022-12-10T01:42:38;66.97;;;31.93;;
4055;SDS011;2043;52.184;8.690;2022-12-10T01:45:07;72.60;;;30.37;;
4055;SDS011;2043;52.184;8.690;2022-12-10T01:47:37;69.67;;;31.67;;
4055;SDS011;2043;52.184;8.690;2022-12-10T01:50:06;62.73;;;29.57;;
4055;SDS011;2043;52.184;8.690;2022-12-10T01:52:34;64.77;;;30.80;;
4055;SDS011;2043;52.184;8.690;2022-12-10T01:55:02;63.00;;;28.47;;
4055;SDS011;2043;52.184;8.690;2022-12-10T01:57:35;62.10;;;28.50;;
4055;SDS011;2043;52.184;8.690;2022-12-10T02:00:03;64.33;;;30.37;;
4055;SDS011;2043;52.184;8.690;2022-12-10T02:10:13;67.80;;;31.60;;
4055;SDS011;2043;52.184;8.690;2022-12-10T02:16:01;64.20;;;28.73;;
4055;SDS011;2043;52.184;8.690;2022-12-10T02:21:06;68.40;;;31.77;;
4055;SDS011;2043;52.184;8.690;2022-12-10T02:23:46;64.10;;;29.53;;
4055;SDS011;2043;52.184;8.690;2022-12-10T02:26:43;61.57;;;28.70;;
4055;SDS011;2043;52.184;8.690;2022-12-10T02:29:30;67.00;;;29.53;;
4055;SDS011;2043;52.184;8.690;2022-12-10T02:32:02;69.73;;;32.20;;
4055;SDS011;2043;52.184;8.690;2022-12-10T02:34:33;67.57;;;31.50;;
4055;SDS011;2043;52.184;8.690;2022-12-10T02:37:06;64.93;;;29.80;;
4055;SDS011;2043;52.184;8.690;2022-12-10T02:39:47;66.00;;;28.87;;
4055;SDS011;2043;52.184;8.690;2022-12-10T02:42:16;69.03;;;30.27;;
4055;SDS011;2043;52.184;8.690;2022-12-10T02:44:45;69.43;;;32.63;;
4055;SDS011;2043;52.184;8.690;2022-12-10T02:47:15;65.43;;;31.03;;
4055;SDS011;2043;52.184;8.690;2022-12-10T02:49:44;69.00;;;30.63;;
4055;SDS011;2043;52.184;8.690;2022-12-10T02:52:14;74.03;;;32.23;;
4055;SDS011;2043;52.184;8.690;2022-12-10T02:54:47;66.57;;;31.47;;
4055;SDS011;2043;52.184;8.690;2022-12-10T02:59:47;72.73;;;32.50;;
4055;SDS011;2043;52.184;8.690;2022-12-10T03:13:54;59.47;;;29.00;;
4055;SDS011;2043;52.184;8.690;2022-12-10T03:16:28;66.43;;;30.23;;
4055;SDS011;2043;52.184;8.690;2022-12-10T03:19:01;71.20;;;30.57;;
4055;SDS011;2043;52.184;8.690;2022-12-10T03:21:31;67.83;;;31.10;;
4055;SDS011;2043;52.184;8.690;2022-12-10T03:24:00;64.30;;;29.47;;
4055;SDS011;2043;52.184;8.690;2022-12-10T03:26:29;67.00;;;30.17;;
4055;SDS011;2043;52.184;8.690;2022-12-10T03:28:58;66.17;;;30.40;;
4055;SDS011;2043;52.184;8.690;2022-12-10T03:31:31;64.00;;;30.70;;
4055;SDS011;2043;52.184;8.690;2022-12-10T03:34:00;62.57;;;29.20;;
4055;SDS011;2043;52.184;8.690;2022-12-10T03:36:28;66.67;;;31.63;;
4055;SDS011;2043;52.184;8.690;2022-12-10T03:38:56;62.23;;;28.40;;
4055;SDS011;2043;52.184;8.690;2022-12-10T03:41:24;59.93;;;29.13;;
4055;SDS011;2043;52.184;8.690;2022-12-10T03:43:55;56.40;;;27.77;;
4055;SDS011;2043;52.184;8.690;2022-12-10T03:46:23;62.20;;;30.57;;
4055;SDS011;2043;52.184;8.690;2022-12-10T03:48:52;65.33;;;30.20;;
4055;SDS011;2043;52.184;8.690;2022-12-10T03:51:20;57.70;;;28.87;;
4055;SDS011;2043;52.184;8.690;2022-12-10T03:53:47;58.10;;;27.37;;
4055;SDS011;2043;52.184;8.690;2022-12-10T03:56:18;54.50;;;27.23;;
4055;SDS011;2043;52.184;8.690;2022-12-10T03:58:45;59.97;;;28.33;;
4055;SDS011;2043;52.184;8.690;2022-12-10T04:01:13;53.83;;;26.70;;
4055;SDS011;2043;52.184;8.690;2022-12-10T04:03:41;60.23;;;28.57;;
4055;SDS011;2043;52.184;8.690;2022-12-10T04:06:10;62.57;;;28.87;;
4055;SDS011;2043;52.184;8.690;2022-12-10T04:08:40;58.50;;;27.83;;
4055;SDS011;2043;52.184;8.690;2022-12-10T04:11:08;58.03;;;27.17;;
4055;SDS011;2043;52.184;8.690;2022-12-10T04:13:36;57.13;;;28.03;;
4055;SDS011;2043;52.184;8.690;2022-12-10T04:16:23;62.27;;;29.90;;
4055;SDS011;2043;52.184;8.690;2022-12-10T04:18:57;58.70;;;29.70;;
4055;SDS011;2043;52.184;8.690;2022-12-10T04:21:29;55.03;;;28.00;;
4055;SDS011;2043;52.184;8.690;2022-12-10T04:24:16;59.97;;;29.13;;
4055;SDS011;2043;52.184;8.690;2022-12-10T04:27:04;62.10;;;29.67;;
4055;SDS011;2043;52.184;8.690;2022-12-10T04:29:34;60.50;;;29.70;;
4055;SDS011;2043;52.184;8.690;2022-12-10T04:32:01;61.90;;;28.77;;
4055;SDS011;2043;52.184;8.690;2022-12-10T04:34:28;56.80;;;27.40;;
4055;SDS011;2043;52.184;8.690;2022-12-10T04:36:56;52.87;;;27.23;;
4055;SDS011;2043;52.184;8.690;2022-12-10T04:39:23;52.43;;;27.17;;
4055;SDS011;2043;52.184;8.690;2022-12-10T04:41:51;57.40;;;27.67;;
4055;SDS011;2043;52.184;8.690;2022-12-10T04:44:18;56.80;;;28.37;;
4055;SDS011;2043;52.184;8.690;2022-12-10T04:46:46;52.60;;;28.03;;
4055;SDS011;2043;52.184;8.690;2022-12-10T04:49:13;53.40;;;27.20;;
4055;SDS011;2043;52.184;8.690;2022-12-10T04:51:41;60.53;;;27.97;;
4055;SDS011;2043;52.184;8.690;2022-12-10T04:54:08;60.80;;;27.73;;
4055;SDS011;2043;52.184;8.690;2022-12-10T04:56:35;65.07;;;28.47;;
4055;SDS011;2043;52.184;8.690;2022-12-10T04:59:03;66.93;;;29.97;;
4055;SDS011;2043;52.184;8.690;2022-12-10T05:01:30;58.23;;;27.97;;
4055;SDS011;2043;52.184;8.690;2022-12-10T05:03:59;58.80;;;29.47;;
4055;SDS011;2043;52.184;8.690;2022-12-10T05:06:27;61.70;;;28.70;;
4055;SDS011;2043;52.184;8.690;2022-12-10T05:08:54;68.33;;;32.03;;
4055;SDS011;2043;52.184;8.690;2022-12-10T05:11:22;65.33;;;30.23;;
4055;SDS011;2043;52.184;8.690;2022-12-10T05:13:50;59.00;;;29.97;;
4055;SDS011;2043;52.184;8.690;2022-12-10T05:16:19;61.43;;;28.20;;
4055;SDS011;2043;52.184;8.690;2022-12-10T05:18:48;56.57;;;28.30;;
4055;SDS011;2043;52.184;8.690;2022-12-10T05:21:16;63.83;;;28.83;;
4055;SDS011;2043;52.184;8.690;2022-12-10T05:23:46;59.53;;;28.87;;
4055;SDS011;2043;52.184;8.690;2022-12-10T05:28:49;60.43;;;28.67;;
4055;SDS011;2043;52.184;8.690;2022-12-10T05:31:23;62.50;;;29.33;;
4055;SDS011;2043;52.184;8.690;2022-12-10T05:33:52;55.60;;;28.10;;
4055;SDS011;2043;52.184;8.690;2022-12-10T05:36:20;61.73;;;29.77;;
4055;SDS011;2043;52.184;8.690;2022-12-10T05:38:49;52.67;;;27.17;;
4055;SDS011;2043;52.184;8.690;2022-12-10T05:41:18;56.97;;;28.67;;
4055;SDS011;2043;52.184;8.690;2022-12-10T05:43:46;55.33;;;27.30;;
4055;SDS011;2043;52.184;8.690;2022-12-10T05:46:14;53.90;;;27.60;;
4055;SDS011;2043;52.184;8.690;2022-12-10T05:48:47;60.37;;;29.60;;
4055;SDS011;2043;52.184;8.690;2022-12-10T05:51:15;62.63;;;29.20;;
4055;SDS011;2043;52.184;8.690;2022-12-10T05:53:43;67.63;;;29.53;;
4055;SDS011;2043;52.184;8.690;2022-12-10T05:56:12;59.73;;;27.93;;
4055;SDS011;2043;52.184;8.690;2022-12-10T05:58:42;68.30;;;29.40;;
4055;SDS011;2043;52.184;8.690;2022-12-10T06:01:10;70.13;;;30.63;;
4055;SDS011;2043;52.184;8.690;2022-12-10T06:03:42;59.13;;;29.30;;
4055;SDS011;2043;52.184;8.690;2022-12-10T06:06:10;65.80;;;29.07;;
4055;SDS011;2043;52.184;8.690;2022-12-10T06:08:37;53.87;;;27.50;;
4055;SDS011;2043;52.184;8.690;2022-12-10T06:11:06;61.07;;;27.77;;
4055;SDS011;2043;52.184;8.690;2022-12-10T06:13:34;67.20;;;29.33;;
4055;SDS011;2043;52.184;8.690;2022-12-10T06:16:05;58.47;;;29.20;;
4055;SDS011;2043;52.184;8.690;2022-12-10T06:18:34;59.97;;;29.00;;
4055;SDS011;2043;52.184;8.690;2022-12-10T06:21:09;59.27;;;28.63;;
4055;SDS011;2043;52.184;8.690;2022-12-10T06:23:38;61.70;;;28.90;;
4055;SDS011;2043;52.184;8.690;2022-12-10T06:26:06;57.93;;;29.53;;
4055;SDS011;2043;52.184;8.690;2022-12-10T06:28:41;61.17;;;29.63;;
4055;SDS011;2043;52.184;8.690;2022-12-10T06:31:10;58.07;;;29.30;;
4055;SDS011;2043;52.184;8.690;2022-12-10T06:33:37;62.07;;;30.20;;
4055;SDS011;2043;52.184;8.690;2022-12-10T06:36:04;63.73;;;30.17;;
4055;SDS011;2043;52.184;8.690;2022-12-10T06:38:33;73.23;;;33.47;;
4055;SDS011;2043;52.184;8.690;2022-12-10T06:41:00;70.60;;;32.53;;
4055;SDS011;2043;52.184;8.690;2022-12-10T06:43:29;90.67;;;35.10;;
4055;SDS011;2043;52.184;8.690;2022-12-10T06:45:56;78.73;;;35.30;;
4055;SDS011;2043;52.184;8.690;2022-12-10T06:48:23;80.33;;;33.47;;
4055;SDS011;2043;52.184;8.690;2022-12-10T06:50:50;67.90;;;32.80;;
4055;SDS011;2043;52.184;8.690;2022-12-10T06:53:18;85.97;;;37.53;;
4055;SDS011;2043;52.184;8.690;2022-12-10T06:55:44;70.57;;;32.60;;
4055;SDS011;2043;52.184;8.690;2022-12-10T06:58:12;68.37;;;32.07;;
4055;SDS011;2043;52.184;8.690;2022-12-10T07:00:38;73.00;;;33.60;;
4055;SDS011;2043;52.184;8.690;2022-12-10T07:03:06;78.27;;;36.00;;
4055;SDS011;2043;52.184;8.690;2022-12-10T07:05:32;71.43;;;32.93;;
4055;SDS011;2043;52.184;8.690;2022-12-10T07:07:59;71.03;;;32.60;;
4055;SDS011;2043;52.184;8.690;2022-12-10T07:10:26;75.40;;;35.43;;
4055;SDS011;2043;52.184;8.690;2022-12-10T07:12:53;75.23;;;34.33;;
4055;SDS011;2043;52.184;8.690;2022-12-10T07:15:20;81.63;;;37.90;;
4055;SDS011;2043;52.184;8.690;2022-12-10T07:17:50;86.33;;;39.10;;
4055;SDS011;2043;52.184;8.690;2022-12-10T07:20:17;81.83;;;38.13;;
4055;SDS011;2043;52.184;8.690;2022-12-10T07:22:44;83.33;;;37.20;;
4055;SDS011;2043;52.184;8.690;2022-12-10T07:25:11;75.90;;;35.10;;
4055;SDS011;2043;52.184;8.690;2022-12-10T07:27:38;67.50;;;32.70;;
4055;SDS011;2043;52.184;8.690;2022-12-10T07:30:05;66.63;;;31.90;;
4055;SDS011;2043;52.184;8.690;2022-12-10T07:32:33;69.40;;;33.50;;
4055;SDS011;2043;52.184;8.690;2022-12-10T07:35:00;59.67;;;30.97;;
4055;SDS011;2043;52.184;8.690;2022-12-10T07:37:27;64.97;;;32.93;;
4055;SDS011;2043;52.184;8.690;2022-12-10T07:39:55;66.60;;;31.67;;
4055;SDS011;2043;52.184;8.690;2022-12-10T07:42:21;68.53;;;31.10;;
4055;SDS011;2043;52.184;8.690;2022-12-10T07:44:48;65.13;;;32.10;;
4055;SDS011;2043;52.184;8.690;2022-12-10T07:47:15;69.47;;;32.30;;
4055;SDS011;2043;52.184;8.690;2022-12-10T07:49:42;68.80;;;32.03;;
4055;SDS011;2043;52.184;8.690;2022-12-10T07:52:09;62.30;;;31.10;;
4055;SDS011;2043;52.184;8.690;2022-12-10T07:54:37;59.60;;;29.50;;
4055;SDS011;2043;52.184;8.690;2022-12-10T07:57:04;64.67;;;30.37;;
4055;SDS011;2043;52.184;8.690;2022-12-10T07:59:31;67.37;;;31.40;;
4055;SDS011;2043;52.184;8.690;2022-12-10T08:01:58;63.47;;;29.80;;
4055;SDS011;2043;52.184;8.690;2022-12-10T08:04:33;57.23;;;29.20;;
4055;SDS011;2043;52.184;8.690;2022-12-10T08:07:00;68.50;;;29.10;;
4055;SDS011;2043;52.184;8.690;2022-12-10T08:09:27;60.80;;;28.87;;
4055;SDS011;2043;52.184;8.690;2022-12-10T08:11:54;57.73;;;28.10;;
4055;SDS011;2043;52.184;8.690;2022-12-10T08:14:21;64.57;;;29.83;;
4055;SDS011;2043;52.184;8.690;2022-12-10T08:16:48;60.37;;;27.80;;
4055;SDS011;2043;52.184;8.690;2022-12-10T08:19:15;57.03;;;28.73;;
4055;SDS011;2043;52.184;8.690;2022-12-10T08:21:48;57.53;;;27.47;;
4055;SDS011;2043;52.184;8.690;2022-12-10T08:24:14;57.87;;;29.30;;
4055;SDS011;2043;52.184;8.690;2022-12-10T08:26:41;57.67;;;29.27;;
4055;SDS011;2043;52.184;8.690;2022-12-10T08:29:08;59.87;;;28.93;;
4055;SDS011;2043;52.184;8.690;2022-12-10T08:31:35;56.47;;;26.50;;
4055;SDS011;2043;52.184;8.690;2022-12-10T08:34:04;56.80;;;28.47;;
4055;SDS011;2043;52.184;8.690;2022-12-10T08:36:31;57.00;;;28.60;;
4055;SDS011;2043;52.184;8.690;2022-12-10T08:38:58;52.00;;;25.93;;
4055;SDS011;2043;52.184;8.690;2022-12-10T08:41:25;53.93;;;25.53;;
4055;SDS011;2043;52.184;8.690;2022-12-10T08:43:52;59.37;;;28.13;;
4055;SDS011;2043;52.184;8.690;2022-12-10T08:46:19;52.60;;;26.40;;
4055;SDS011;2043;52.184;8.690;2022-12-10T08:48:46;57.57;;;27.37;;
4055;SDS011;2043;52.184;8.690;2022-12-10T08:51:14;72.13;;;27.53;;
4055;SDS011;2043;52.184;8.690;2022-12-10T08:53:42;51.50;;;25.70;;
4055;SDS011;2043;52.184;8.690;2022-12-10T08:56:10;54.80;;;26.67;;
4055;SDS011;2043;52.184;8.690;2022-12-10T08:58:37;53.67;;;25.50;;
4055;SDS011;2043;52.184;8.690;2022-12-10T09:01:05;60.03;;;27.87;;
4055;SDS011;2043;52.184;8.690;2022-12-10T09:03:37;53.90;;;26.73;;
4055;SDS011;2043;52.184;8.690;2022-12-10T09:06:04;59.90;;;28.50;;
4055;SDS011;2043;52.184;8.690;2022-12-10T09:08:33;58.50;;;27.40;;
4055;SDS011;2043;52.184;8.690;2022-12-10T09:13:48;61.30;;;30.40;;
4055;SDS011;2043;52.184;8.690;2022-12-10T09:16:15;53.87;;;26.33;;
4055;SDS011;2043;52.184;8.690;2022-12-10T09:18:42;48.60;;;24.50;;
4055;SDS011;2043;52.184;8.690;2022-12-10T09:21:13;51.53;;;25.47;;
4055;SDS011;2043;52.184;8.690;2022-12-10T09:23:42;61.80;;;27.70;;
4055;SDS011;2043;52.184;8.690;2022-12-10T09:26:10;53.03;;;26.43;;
4055;SDS011;2043;52.184;8.690;2022-12-10T09:28:41;64.27;;;29.93;;
4055;SDS011;2043;52.184;8.690;2022-12-10T09:31:09;56.03;;;27.77;;
4055;SDS011;2043;52.184;8.690;2022-12-10T09:33:46;58.10;;;27.37;;
4055;SDS011;2043;52.184;8.690;2022-12-10T09:36:14;59.17;;;27.97;;
4055;SDS011;2043;52.184;8.690;2022-12-10T09:38:42;59.27;;;28.63;;
4055;SDS011;2043;52.184;8.690;2022-12-10T09:49:48;56.60;;;27.60;;
4055;SDS011;2043;52.184;8.690;2022-12-10T09:52:26;54.97;;;27.50;;
4055;SDS011;2043;52.184;8.690;2022-12-10T09:54:59;52.63;;;26.87;;
4055;SDS011;2043;52.184;8.690;2022-12-10T09:57:31;62.97;;;25.97;;
4055;SDS011;2043;52.184;8.690;2022-12-10T10:02:46;57.00;;;26.97;;
4055;SDS011;2043;52.184;8.690;2022-12-10T10:05:22;51.87;;;24.63;;
4055;SDS011;2043;52.184;8.690;2022-12-10T10:07:52;48.97;;;24.80;;
4055;SDS011;2043;52.184;8.690;2022-12-10T10:10:23;52.90;;;25.57;;
4055;SDS011;2043;52.184;8.690;2022-12-10T10:15:34;57.33;;;27.73;;
4055;SDS011;2043;52.184;8.690;2022-12-10T10:18:05;59.70;;;27.23;;
4055;SDS011;2043;52.184;8.690;2022-12-10T10:20:58;56.47;;;27.50;;
4055;SDS011;2043;52.184;8.690;2022-12-10T10:23:26;53.37;;;25.77;;
4055;SDS011;2043;52.184;8.690;2022-12-10T10:25:53;52.30;;;25.07;;
4055;SDS011;2043;52.184;8.690;2022-12-10T10:28:20;70.07;;;26.53;;
4055;SDS011;2043;52.184;8.690;2022-12-10T10:30:48;53.30;;;26.80;;
4055;SDS011;2043;52.184;8.690;2022-12-10T10:33:18;58.73;;;25.80;;
4055;SDS011;2043;52.184;8.690;2022-12-10T10:35:49;52.57;;;26.23;;
4055;SDS011;2043;52.184;8.690;2022-12-10T10:40:55;33.87;;;18.20;;
4055;SDS011;2043;52.184;8.690;2022-12-10T10:43:28;19.43;;;10.77;;
4055;SDS011;2043;52.184;8.690;2022-12-10T10:46:14;27.97;;;14.80;;
4055;SDS011;2043;52.184;8.690;2022-12-10T10:48:48;37.33;;;18.97;;
4055;SDS011;2043;52.184;8.690;2022-12-10T10:51:21;36.43;;;18.50;;
4055;SDS011;2043;52.184;8.690;2022-12-10T10:53:54;41.97;;;20.70;;
4055;SDS011;2043;52.184;8.690;2022-12-10T10:56:25;47.30;;;24.03;;
4055;SDS011;2043;52.184;8.690;2022-12-10T11:01:43;43.90;;;19.90;;
4055;SDS011;2043;52.184;8.690;2022-12-10T11:04:14;51.27;;;22.97;;
4055;SDS011;2043;52.184;8.690;2022-12-10T11:06:42;42.03;;;18.30;;
4055;SDS011;2043;52.184;8.690;2022-12-10T11:09:18;27.67;;;15.70;;
4055;SDS011;2043;52.184;8.690;2022-12-10T11:11:52;22.60;;;12.47;;
4055;SDS011;2043;52.184;8.690;2022-12-10T11:14:27;24.77;;;11.07;;
4055;SDS011;2043;52.184;8.690;2022-12-10T11:19:44;46.10;;;19.87;;
4055;SDS011;2043;52.184;8.690;2022-12-10T11:22:30;40.07;;;19.50;;
4055;SDS011;2043;52.184;8.690;2022-12-10T11:24:59;44.13;;;22.00;;
4055;SDS011;2043;52.184;8.690;2022-12-10T11:27:36;39.00;;;19.73;;
4055;SDS011;2043;52.184;8.690;2022-12-10T11:41:15;26.53;;;14.43;;
4055;SDS011;2043;52.184;8.690;2022-12-10T11:49:35;19.70;;;11.70;;
4055;SDS011;2043;52.184;8.690;2022-12-10T11:55:07;33.47;;;13.10;;
4055;SDS011;2043;52.184;8.690;2022-12-10T12:00:48;21.40;;;12.50;;
4055;SDS011;2043;52.184;8.690;2022-12-10T12:06:07;23.33;;;12.77;;
4055;SDS011;2043;52.184;8.690;2022-12-10T12:09:06;24.33;;;12.20;;
4055;SDS011;2043;52.184;8.690;2022-12-10T12:14:41;27.77;;;14.67;;
4055;SDS011;2043;52.184;8.690;2022-12-10T12:19:54;24.67;;;14.00;;
4055;SDS011;2043;52.184;8.690;2022-12-10T12:24:56;26.13;;;13.70;;
4055;SDS011;2043;52.184;8.690;2022-12-10T12:32:50;25.37;;;14.37;;
4055;SDS011;2043;52.184;8.690;2022-12-10T12:40:52;24.57;;;13.80;;
4055;SDS011;2043;52.184;8.690;2022-12-10T12:46:02;18.43;;;10.70;;
4055;SDS011;2043;52.184;8.690;2022-12-10T12:48:52;21.37;;;11.80;;
4055;SDS011;2043;52.184;8.690;2022-12-10T12:54:13;24.23;;;12.30;;
4055;SDS011;2043;52.184;8.690;2022-12-10T13:05:13;24.67;;;12.57;;
4055;SDS011;2043;52.184;8.690;2022-12-10T13:10:49;25.33;;;13.87;;
4055;SDS011;2043;52.184;8.690;2022-12-10T13:13:34;23.80;;;13.07;;
4055;SDS011;2043;52.184;8.690;2022-12-10T13:27:10;33.60;;;14.60;;
4055;SDS011;2043;52.184;8.690;2022-12-10T13:37:36;22.33;;;12.37;;
4055;SDS011;2043;52.184;8.690;2022-12-10T13:46:20;27.13;;;14.30;;
4055;SDS011;2043;52.184;8.690;2022-12-10T13:48:48;33.90;;;16.37;;
4055;SDS011;2043;52.184;8.690;2022-12-10T13:51:20;27.43;;;15.20;;
4055;SDS011;2043;52.184;8.690;2022-12-10T14:07:32;29.23;;;14.47;;
4055;SDS011;2043;52.184;8.690;2022-12-10T14:10:00;26.70;;;14.40;;
4055;SDS011;2043;52.184;8.690;2022-12-10T14:12:35;24.27;;;14.53;;
4055;SDS011;2043;52.184;8.690;2022-12-10T14:15:14;27.20;;;14.17;;
4055;SDS011;2043;52.184;8.690;2022-12-10T14:17:44;27.60;;;14.50;;
4055;SDS011;2043;52.184;8.690;2022-12-10T14:20:22;29.47;;;14.50;;
4055;SDS011;2043;52.184;8.690;2022-12-10T14:22:51;27.33;;;14.40;;
4055;SDS011;2043;52.184;8.690;2022-12-10T14:25:41;29.90;;;15.60;;
4055;SDS011;2043;52.184;8.690;2022-12-10T14:28:15;34.67;;;18.47;;
4055;SDS011;2043;52.184;8.690;2022-12-10T14:30:44;28.20;;;15.83;;
4055;SDS011;2043;52.184;8.690;2022-12-10T14:33:14;40.73;;;18.97;;
4055;SDS011;2043;52.184;8.690;2022-12-10T14:35:46;30.77;;;16.17;;
4055;SDS011;2043;52.184;8.690;2022-12-10T14:38:22;27.33;;;14.67;;
4055;SDS011;2043;52.184;8.690;2022-12-10T14:40:54;35.03;;;16.33;;
4055;SDS011;2043;52.184;8.690;2022-12-10T14:43:21;30.00;;;17.03;;
4055;SDS011;2043;52.184;8.690;2022-12-10T14:46:05;28.90;;;16.43;;
4055;SDS011;2043;52.184;8.690;2022-12-10T14:48:39;28.73;;;16.47;;
4055;SDS011;2043;52.184;8.690;2022-12-10T14:51:17;33.37;;;17.60;;
4055;SDS011;2043;52.184;8.690;2022-12-10T14:53:48;31.73;;;16.80;;
4055;SDS011;2043;52.184;8.690;2022-12-10T14:56:19;28.03;;;16.23;;
4055;SDS011;2043;52.184;8.690;2022-12-10T14:58:51;32.60;;;16.07;;
4055;SDS011;2043;52.184;8.690;2022-12-10T15:01:47;36.70;;;18.60;;
4055;SDS011;2043;52.184;8.690;2022-12-10T15:04:18;35.10;;;18.53;;
4055;SDS011;2043;52.184;8.690;2022-12-10T15:06:52;46.03;;;22.03;;
4055;SDS011;2043;52.184;8.690;2022-12-10T15:09:25;39.27;;;19.80;;
4055;SDS011;2043;52.184;8.690;2022-12-10T15:11:56;44.20;;;20.80;;
4055;SDS011;2043;52.184;8.690;2022-12-10T15:14:26;49.50;;;23.03;;
4055;SDS011;2043;52.184;8.690;2022-12-10T15:16:55;43.20;;;20.40;;
4055;SDS011;2043;52.184;8.690;2022-12-10T15:22:15;28.90;;;15.47;;
4055;SDS011;2043;52.184;8.690;2022-12-10T15:24:45;25.83;;;14.80;;
4055;SDS011;2043;52.184;8.690;2022-12-10T15:29:43;33.10;;;16.50;;
4055;SDS011;2043;52.184;8.690;2022-12-10T15:32:12;31.67;;;16.07;;
4055;SDS011;2043;52.184;8.690;2022-12-10T15:34:47;31.83;;;16.30;;
4055;SDS011;2043;52.184;8.690;2022-12-10T15:37:23;29.10;;;16.53;;
4055;SDS011;2043;52.184;8.690;2022-12-10T15:39:58;31.50;;;16.33;;
4055;SDS011;2043;52.184;8.690;2022-12-10T15:42:41;32.50;;;17.50;;
4055;SDS011;2043;52.184;8.690;2022-12-10T15:47:50;32.57;;;17.40;;
4055;SDS011;2043;52.184;8.690;2022-12-10T15:50:17;30.53;;;17.00;;
4055;SDS011;2043;52.184;8.690;2022-12-10T15:52:44;31.10;;;17.17;;
4055;SDS011;2043;52.184;8.690;2022-12-10T15:55:12;33.13;;;16.83;;
4055;SDS011;2043;52.184;8.690;2022-12-10T15:57:40;31.80;;;17.57;;
4055;SDS011;2043;52.184;8.690;2022-12-10T16:00:21;30.57;;;16.53;;
4055;SDS011;2043;52.184;8.690;2022-12-10T16:02:59;38.20;;;16.97;;
4055;SDS011;2043;52.184;8.690;2022-12-10T16:05:30;39.90;;;18.20;;
4055;SDS011;2043;52.184;8.690;2022-12-10T16:08:05;33.87;;;19.10;;
4055;SDS011;2043;52.184;8.690;2022-12-10T16:10:33;28.37;;;16.33;;
4055;SDS011;2043;52.184;8.690;2022-12-10T16:13:02;32.33;;;17.80;;
4055;SDS011;2043;52.184;8.690;2022-12-10T16:15:33;32.63;;;17.23;;
4055;SDS011;2043;52.184;8.690;2022-12-10T16:18:03;32.80;;;17.63;;
4055;SDS011;2043;52.184;8.690;2022-12-10T16:20:31;35.50;;;19.00;;
4055;SDS011;2043;52.184;8.690;2022-12-10T16:22:59;37.37;;;17.80;;
4055;SDS011;2043;52.184;8.690;2022-12-10T16:25:27;37.57;;;18.20;;
4055;SDS011;2043;52.184;8.690;2022-12-10T16:27:56;33.20;;;17.90;;
4055;SDS011;2043;52.184;8.690;2022-12-10T16:30:25;32.13;;;17.27;;
4055;SDS011;2043;52.184;8.690;2022-12-10T16:33:05;36.13;;;18.23;;
4055;SDS011;2043;52.184;8.690;2022-12-10T16:35:32;37.23;;;18.93;;
4055;SDS011;2043;52.184;8.690;2022-12-10T16:37:59;45.10;;;19.13;;
4055;SDS011;2043;52.184;8.690;2022-12-10T16:40:34;39.00;;;19.17;;
4055;SDS011;2043;52.184;8.690;2022-12-10T16:43:00;35.00;;;19.50;;
4055;SDS011;2043;52.184;8.690;2022-12-10T16:45:29;42.03;;;18.50;;
4055;SDS011;2043;52.184;8.690;2022-12-10T16:48:01;34.53;;;18.53;;
4055;SDS011;2043;52.184;8.690;2022-12-10T16:50:28;34.30;;;18.20;;
4055;SDS011;2043;52.184;8.690;2022-12-10T16:52:55;35.40;;;18.93;;
4055;SDS011;2043;52.184;8.690;2022-12-10T16:55:24;38.10;;;19.40;;
4055;SDS011;2043;52.184;8.690;2022-12-10T16:57:52;37.90;;;19.27;;
4055;SDS011;2043;52.184;8.690;2022-12-10T17:00:21;38.67;;;19.60;;
4055;SDS011;2043;52.184;8.690;2022-12-10T17:02:50;38.90;;;18.87;;
4055;SDS011;2043;52.184;8.690;2022-12-10T17:05:34;36.70;;;18.93;;
4055;SDS011;2043;52.184;8.690;2022-12-10T17:08:04;38.33;;;20.30;;
4055;SDS011;2043;52.184;8.690;2022-12-10T17:10:31;36.47;;;19.17;;
4055;SDS011;2043;52.184;8.690;2022-12-10T17:13:17;39.43;;;20.10;;
4055;SDS011;2043;52.184;8.690;2022-12-10T17:15:49;50.43;;;21.63;;
4055;SDS011;2043;52.184;8.690;2022-12-10T17:18:17;36.43;;;19.07;;
4055;SDS011;2043;52.184;8.690;2022-12-10T17:20:44;46.33;;;21.47;;
4055;SDS011;2043;52.184;8.690;2022-12-10T17:23:12;40.03;;;20.90;;
4055;SDS011;2043;52.184;8.690;2022-12-10T17:25:40;44.73;;;22.17;;
4055;SDS011;2043;52.184;8.690;2022-12-10T17:28:14;36.70;;;19.83;;
4055;SDS011;2043;52.184;8.690;2022-12-10T17:30:43;39.90;;;20.27;;
4055;SDS011;2043;52.184;8.690;2022-12-10T17:33:13;37.40;;;20.53;;
4055;SDS011;2043;52.184;8.690;2022-12-10T17:35:48;41.00;;;21.50;;
4055;SDS011;2043;52.184;8.690;2022-12-10T17:38:21;47.17;;;19.60;;
4055;SDS011;2043;52.184;8.690;2022-12-10T17:40:50;38.77;;;19.70;;
4055;SDS011;2043;52.184;8.690;2022-12-10T17:43:18;38.00;;;19.90;;
4055;SDS011;2043;52.184;8.690;2022-12-10T17:45:45;33.43;;;18.20;;
4055;SDS011;2043;52.184;8.690;2022-12-10T17:48:13;35.20;;;18.43;;
4055;SDS011;2043;52.184;8.690;2022-12-10T17:50:42;35.67;;;18.40;;
4055;SDS011;2043;52.184;8.690;2022-12-10T17:53:10;38.83;;;19.27;;